Wetterdaten: Woche 26.06.17 - 02.07.17 (KW26)
Datum Zeit Temp. A. Feuchte A. Luftdruck Regen Wind Richtung Taupunkt Windchill Windben
26.06.2017 00:00 21,4 C 70 % 1011,5 hPa 0,0 l/m 8,9 km/h N 15,8 C 20,6 C 27,8 km/h
26.06.2017 01:00 21,6 C 68 % 1011,5 hPa 0,0 l/m 7,7 km/h N 15,4 C 21,1 C 24,1 km/h
26.06.2017 02:00 21,7 C 65 % 1011,5 hPa 0,0 l/m 5,7 km/h N 14,8 C 21,6 C 18,9 km/h
26.06.2017 03:00 21,8 C 62 % 1011,4 hPa 0,0 l/m 7,9 km/h N 14,1 C 21,3 C 23,3 km/h
26.06.2017 04:00 21,6 C 63 % 1011,3 hPa 0,0 l/m 6,1 km/h N 14,1 C 21,5 C 18,9 km/h
26.06.2017 05:00 21,1 C 65 % 1011,4 hPa 0,0 l/m 6,1 km/h N 14,3 C 21,1 C 20,1 km/h
26.06.2017 06:00 20,8 C 67 % 1011,9 hPa 0,0 l/m 5,8 km/h N 14,5 C 20,6 C 18,1 km/h
26.06.2017 07:00 21,6 C 67 % 1012,1 hPa 0,0 l/m 4,9 km/h N 15,1 C 21,6 C 17,7 km/h
26.06.2017 08:00 22,6 C 63 % 1012,5 hPa 0,0 l/m 3,6 km/h N 15,1 C 22,6 C 18,9 km/h
26.06.2017 09:00 23,9 C 59 % 1012,3 hPa 0,0 l/m 6,6 km/h N 15,2 C 23,7 C 21,3 km/h
26.06.2017 10:00 25,0 C 57 % 1012,1 hPa 0,0 l/m 6,4 km/h N 15,9 C 24,8 C 22,1 km/h
26.06.2017 11:00 25,2 C 53 % 1012,0 hPa 0,0 l/m 7,2 km/h N 14,8 C 24,9 C 21,3 km/h
26.06.2017 12:00 26,6 C 51 % 1011,9 hPa 0,0 l/m 4,4 km/h N 15,7 C 26,5 C 20,1 km/h
26.06.2017 13:00 27,5 C 47 % 1011,5 hPa 0,0 l/m 4,9 km/h N 15,2 C 27,5 C 18,9 km/h
26.06.2017 14:00 27,8 C 46 % 1011,2 hPa 0,0 l/m 5,1 km/h N 15,1 C 27,8 C 18,5 km/h
26.06.2017 15:00 28,1 C 46 % 1010,8 hPa 0,0 l/m 4,2 km/h N 15,4 C 28,1 C 20,5 km/h
26.06.2017 16:00 28,4 C 46 % 1010,3 hPa 0,0 l/m 3,9 km/h N 15,7 C 28,4 C 19,3 km/h
26.06.2017 17:00 29,1 C 45 % 1009,8 hPa 0,0 l/m 3,5 km/h N 15,8 C 29,1 C 16,1 km/h
26.06.2017 18:00 29,8 C 44 % 1009,4 hPa 0,0 l/m 2,8 km/h N 16,0 C 29,8 C 11,3 km/h
26.06.2017 19:00 29,9 C 45 % 1009,1 hPa 0,0 l/m 0,6 km/h N 16,5 C 29,9 C 4,8 km/h
26.06.2017 20:00 29,3 C 47 % 1009,0 hPa 0,0 l/m 0,3 km/h N 16,7 C 29,3 C 3,2 km/h
26.06.2017 21:00 26,5 C 50 % 1009,4 hPa 0,0 l/m 0,2 km/h N 15,3 C 26,5 C 4,4 km/h
26.06.2017 22:00 23,6 C 60 % 1009,6 hPa 0,0 l/m 0,0 km/h N 15,3 C 23,6 C 0,4 km/h
26.06.2017 23:00 21,3 C 67 % 1009,8 hPa 0,0 l/m 0,0 km/h N 14,9 C 21,3 C 0,4 km/h
27.06.2017 00:00 19,9 C 72 % 1009,7 hPa 0,0 l/m 0,0 km/h N 14,6 C 19,9 C 0,0 km/h
27.06.2017 01:00 18,7 C 76 % 1009,4 hPa 0,0 l/m 0,0 km/h N 14,4 C 18,7 C 0,0 km/h
27.06.2017 02:00 18,0 C 79 % 1009,1 hPa 0,0 l/m 0,0 km/h N 14,2 C 18,0 C 0,0 km/h
27.06.2017 03:00 17,4 C 81 % 1008,9 hPa 0,0 l/m 0,0 km/h N 14,0 C 17,4 C 0,8 km/h
27.06.2017 04:00 16,7 C 81 % 1008,6 hPa 0,0 l/m 0,0 km/h N 13,4 C 16,7 C 0,0 km/h
27.06.2017 05:00 16,3 C 81 % 1008,6 hPa 0,0 l/m 0,0 km/h N 13,0 C 16,3 C 0,0 km/h
27.06.2017 06:00 16,8 C 82 % 1008,7 hPa 0,0 l/m 0,0 km/h N 13,7 C 16,8 C 1,2 km/h
27.06.2017 07:00 19,2 C 81 % 1008,4 hPa 0,0 l/m 0,0 km/h N 15,9 C 19,2 C 1,2 km/h
27.06.2017 08:00 21,9 C 77 % 1008,4 hPa 0,0 l/m 0,1 km/h N 17,7 C 21,9 C 2,4 km/h
27.06.2017 09:00 23,7 C 73 % 1008,2 hPa 0,0 l/m 0,1 km/h N 18,5 C 23,7 C 2,4 km/h
27.06.2017 10:00 26,9 C 57 % 1008,3 hPa 0,0 l/m 1,6 km/h N 17,6 C 26,9 C 9,6 km/h
27.06.2017 11:00 27,7 C 56 % 1008,6 hPa 0,0 l/m 2,2 km/h N 18,0 C 27,7 C 9,3 km/h
27.06.2017 12:00 25,9 C 64 % 1008,6 hPa 0,0 l/m 2,3 km/h N 18,6 C 25,9 C 11,7 km/h
27.06.2017 13:00 26,5 C 58 % 1008,3 hPa 0,0 l/m 1,4 km/h N 17,5 C 26,5 C 9,3 km/h
27.06.2017 14:00 28,9 C 51 % 1007,8 hPa 0,0 l/m 2,2 km/h N 17,6 C 28,9 C 10,9 km/h
27.06.2017 15:00 30,3 C 47 % 1007,0 hPa 0,0 l/m 1,9 km/h N 17,6 C 30,3 C 8,4 km/h
27.06.2017 16:00 30,3 C 47 % 1006,5 hPa 0,0 l/m 2,8 km/h N 17,5 C 30,3 C 10,5 km/h
27.06.2017 17:00 29,2 C 49 % 1005,9 hPa 0,0 l/m 3,7 km/h N 17,2 C 29,2 C 14,9 km/h
27.06.2017 18:00 28,4 C 51 % 1005,2 hPa 0,0 l/m 2,4 km/h N 17,3 C 28,4 C 11,3 km/h
27.06.2017 19:00 27,7 C 53 % 1004,8 hPa 0,0 l/m 1,6 km/h N 17,2 C 27,7 C 7,6 km/h
27.06.2017 20:00 27,0 C 55 % 1004,5 hPa 0,0 l/m 0,4 km/h N 17,2 C 27,0 C 5,2 km/h
27.06.2017 21:00 26,1 C 59 % 1004,6 hPa 0,0 l/m 0,3 km/h N 17,3 C 26,1 C 4,4 km/h
27.06.2017 22:00 24,9 C 64 % 1004,6 hPa 0,0 l/m 0,2 km/h N 17,5 C 24,9 C 2,4 km/h
27.06.2017 23:00 23,4 C 69 % 1004,3 hPa 0,0 l/m 0,0 km/h N 17,3 C 23,4 C 0,8 km/h
28.06.2017 00:00 22,0 C 73 % 1003,9 hPa 0,0 l/m 0,0 km/h N 16,8 C 22,0 C 0,0 km/h
28.06.2017 01:00 21,0 C 75 % 1003,5 hPa 0,0 l/m 0,0 km/h N 16,5 C 21,0 C 1,2 km/h
28.06.2017 02:00 21,1 C 75 % 1002,9 hPa 0,0 l/m 0,1 km/h N 16,5 C 21,1 C 2,4 km/h
28.06.2017 03:00 20,8 C 75 % 1002,3 hPa 0,0 l/m 0,4 km/h N 16,3 C 20,8 C 3,2 km/h
28.06.2017 04:00 19,2 C 78 % 1001,8 hPa 0,0 l/m 0,0 km/h N 15,3 C 19,2 C 1,6 km/h
28.06.2017 05:00 17,9 C 81 % 1001,8 hPa 0,0 l/m 0,0 km/h N 14,5 C 17,9 C 1,6 km/h
28.06.2017 06:00 18,2 C 81 % 1001,7 hPa 0,0 l/m 0,0 km/h N 14,9 C 18,2 C 0,4 km/h
28.06.2017 07:00 19,5 C 80 % 1001,1 hPa 0,0 l/m 0,2 km/h N 15,9 C 19,5 C 2,0 km/h
28.06.2017 08:00 24,2 C 65 % 1000,5 hPa 0,0 l/m 0,4 km/h N 17,0 C 24,2 C 5,6 km/h
28.06.2017 09:00 27,0 C 55 % 1000,1 hPa 0,0 l/m 0,8 km/h N 17,0 C 27,0 C 7,7 km/h
28.06.2017 10:00 28,2 C 51 % 999,8 hPa 0,0 l/m 1,8 km/h N 17,0 C 28,2 C 10,9 km/h
28.06.2017 11:00 31,2 C 43 % 999,2 hPa 0,0 l/m 3,9 km/h N 17,2 C 31,2 C 13,7 km/h
28.06.2017 12:00 33,5 C 39 % 998,5 hPa 0,0 l/m 4,8 km/h N 17,5 C 33,5 C 16,9 km/h
28.06.2017 13:00 33,9 C 40 % 998,3 hPa 0,0 l/m 5,5 km/h N 18,4 C 33,9 C 24,1 km/h
28.06.2017 14:00 33,2 C 42 % 997,6 hPa 0,0 l/m 6,6 km/h N 18,6 C 33,2 C 23,3 km/h
28.06.2017 15:00 33,3 C 42 % 997,5 hPa 0,0 l/m 6,9 km/h N 18,4 C 33,3 C 26,1 km/h
28.06.2017 16:00 32,1 C 45 % 997,3 hPa 0,0 l/m 6,8 km/h N 18,6 C 32,0 C 22,9 km/h
28.06.2017 17:00 30,8 C 47 % 996,8 hPa 0,0 l/m 5,3 km/h N 18,0 C 30,8 C 18,5 km/h
28.06.2017 18:00 29,8 C 45 % 996,6 hPa 0,0 l/m 3,9 km/h N 16,5 C 29,8 C 13,3 km/h
28.06.2017 19:00 28,8 C 43 % 996,4 hPa 0,0 l/m 3,2 km/h N 14,8 C 28,8 C 15,3 km/h
28.06.2017 20:00 27,4 C 48 % 996,0 hPa 0,0 l/m 4,5 km/h N 15,3 C 27,4 C 16,5 km/h
28.06.2017 21:00 25,8 C 50 % 996,3 hPa 0,0 l/m 5,9 km/h N 14,6 C 25,8 C 20,9 km/h
28.06.2017 22:00 23,9 C 58 % 996,1 hPa 0,0 l/m 5,1 km/h N 15,1 C 23,9 C 20,5 km/h
28.06.2017 23:00 22,9 C 62 % 996,0 hPa 0,0 l/m 1,9 km/h N 15,1 C 22,9 C 10,1 km/h
29.06.2017 00:00 22,6 C 63 % 995,2 hPa 0,0 l/m 2,6 km/h N 15,2 C 22,6 C 9,7 km/h
29.06.2017 01:00 21,1 C 71 % 994,4 hPa 0,0 l/m 1,8 km/h N 15,6 C 21,1 C 7,6 km/h
29.06.2017 02:00 20,0 C 75 % 993,7 hPa 0,0 l/m 2,8 km/h N 15,4 C 20,0 C 12,5 km/h
29.06.2017 03:00 19,5 C 76 % 993,1 hPa 0,0 l/m 1,7 km/h N 15,0 C 19,5 C 9,6 km/h
29.06.2017 04:00 18,7 C 77 % 992,5 hPa 0,0 l/m 1,6 km/h N 14,5 C 18,7 C 8,9 km/h
29.06.2017 05:00 18,8 C 75 % 992,8 hPa 0,0 l/m 1,2 km/h N 14,2 C 18,8 C 7,6 km/h
29.06.2017 06:00 19,1 C 74 % 993,1 hPa 0,0 l/m 0,8 km/h N 14,4 C 19,1 C 6,4 km/h
29.06.2017 07:00 20,4 C 69 % 993,5 hPa 0,0 l/m 1,4 km/h N 14,5 C 20,4 C 6,8 km/h
29.06.2017 08:00 22,4 C 63 % 994,1 hPa 0,0 l/m 2,4 km/h N 14,8 C 22,4 C 10,9 km/h
29.06.2017 09:00 23,5 C 60 % 994,9 hPa 0,0 l/m 9,3 km/h N 15,2 C 22,7 C 26,2 km/h
29.06.2017 10:00 23,5 C 56 % 995,7 hPa 0,0 l/m 8,9 km/h N 14,2 C 22,9 C 27,0 km/h
29.06.2017 11:00 22,9 C 54 % 996,5 hPa 0,0 l/m 10,3 km/h N 13,2 C 21,8 C 33,0 km/h
29.06.2017 12:00 22,1 C 57 % 997,2 hPa 0,0 l/m 5,6 km/h N 13,0 C 22,0 C 23,7 km/h
29.06.2017 13:00 23,0 C 54 % 997,5 hPa 0,0 l/m 6,3 km/h N 13,1 C 22,7 C 26,1 km/h
29.06.2017 14:00 22,4 C 58 % 998,5 hPa 0,3 l/m 3,1 km/h N 13,6 C 22,4 C 20,1 km/h
29.06.2017 15:00 20,7 C 71 % 998,9 hPa 0,0 l/m 0,0 km/h N 15,3 C 20,7 C 1,6 km/h
29.06.2017 16:00 22,9 C 60 % 998,9 hPa 0,0 l/m 3,0 km/h N 14,7 C 22,8 C 12,0 km/h
29.06.2017 17:00 24,9 C 48 % 998,9 hPa 0,0 l/m 8,2 km/h N 13,1 C 24,4 C 27,8 km/h
29.06.2017 18:00 25,3 C 47 % 999,2 hPa 0,0 l/m 4,5 km/h N 13,1 C 25,2 C 16,9 km/h
29.06.2017 19:00 24,1 C 51 % 999,8 hPa 0,0 l/m 2,6 km/h N 13,3 C 24,1 C 11,3 km/h
29.06.2017 20:00 23,2 C 57 % 1000,3 hPa 0,0 l/m 0,2 km/h N 14,0 C 23,2 C 2,0 km/h
29.06.2017 21:00 22,3 C 65 % 1000,9 hPa 0,0 l/m 0,1 km/h N 15,4 C 22,3 C 2,8 km/h
29.06.2017 22:00 20,6 C 75 % 1001,2 hPa 0,0 l/m 0,5 km/h N 16,0 C 20,6 C 5,6 km/h
29.06.2017 23:00 19,2 C 77 % 1001,6 hPa 0,0 l/m 0,2 km/h N 15,1 C 19,2 C 3,2 km/h
30.06.2017 00:00 18,2 C 77 % 1002,0 hPa 0,0 l/m 0,0 km/h N 14,1 C 18,2 C 0,4 km/h
30.06.2017 01:00 17,5 C 75 % 1002,8 hPa 0,0 l/m 3,0 km/h N 12,9 C 17,2 C 10,0 km/h
30.06.2017 02:00 19,1 C 63 % 1003,1 hPa 0,0 l/m 4,7 km/h N 12,0 C 19,1 C 23,3 km/h
30.06.2017 03:00 18,6 C 64 % 1003,8 hPa 0,0 l/m 1,5 km/h N 11,6 C 18,6 C 12,5 km/h
30.06.2017 04:00 18,7 C 62 % 1004,1 hPa 0,0 l/m 6,6 km/h N 11,2 C 18,2 C 23,3 km/h
30.06.2017 05:00 18,7 C 60 % 1004,2 hPa 0,0 l/m 5,4 km/h N 10,9 C 18,6 C 18,9 km/h
30.06.2017 06:00 19,2 C 59 % 1004,9 hPa 0,0 l/m 3,4 km/h N 10,9 C 19,2 C 20,1 km/h
30.06.2017 07:00 19,5 C 57 % 1005,5 hPa 0,0 l/m 7,1 km/h N 10,7 C 19,0 C 27,4 km/h
30.06.2017 08:00 20,4 C 54 % 1006,5 hPa 0,0 l/m 10,5 km/h N 10,7 C 19,0 C 32,6 km/h
30.06.2017 09:00 20,4 C 52 % 1007,1 hPa 0,0 l/m 9,9 km/h N 10,2 C 19,2 C 33,4 km/h
30.06.2017 10:00 21,9 C 49 % 1007,3 hPa 0,0 l/m 9,8 km/h N 10,7 C 20,8 C 31,0 km/h
30.06.2017 11:00 23,2 C 47 % 1007,3 hPa 0,0 l/m 7,2 km/h N 11,0 C 22,7 C 27,0 km/h
30.06.2017 12:00 24,6 C 45 % 1007,6 hPa 0,0 l/m 4,3 km/h N 11,8 C 24,5 C 15,7 km/h
30.06.2017 13:00 24,8 C 44 % 1007,2 hPa 0,0 l/m 5,1 km/h N 11,7 C 24,8 C 19,7 km/h
30.06.2017 14:00 24,7 C 45 % 1006,7 hPa 0,0 l/m 2,0 km/h N 11,9 C 24,7 C 9,2 km/h
30.06.2017 15:00 25,1 C 46 % 1006,5 hPa 0,0 l/m 0,2 km/h N 12,8 C 25,1 C 4,0 km/h
30.06.2017 16:00 24,3 C 51 % 1005,9 hPa 0,0 l/m 0,8 km/h N 13,3 C 24,3 C 5,2 km/h
30.06.2017 17:00 24,7 C 49 % 1005,4 hPa 0,0 l/m 1,0 km/h N 13,2 C 24,7 C 8,4 km/h
30.06.2017 18:00 25,5 C 48 % 1004,8 hPa 0,0 l/m 0,7 km/h N 13,6 C 25,5 C 6,8 km/h
30.06.2017 19:00 24,6 C 49 % 1004,5 hPa 0,0 l/m 2,5 km/h N 13,3 C 24,6 C 13,7 km/h
30.06.2017 20:00 22,5 C 54 % 1004,7 hPa 0,0 l/m 1,8 km/h N 12,8 C 22,5 C 7,6 km/h
30.06.2017 21:00 21,2 C 58 % 1005,3 hPa 0,0 l/m 2,7 km/h N 12,6 C 21,2 C 11,3 km/h
30.06.2017 22:00 20,3 C 57 % 1006,2 hPa 0,0 l/m 5,4 km/h N 11,6 C 20,2 C 20,5 km/h
30.06.2017 23:00 20,1 C 58 % 1006,5 hPa 0,0 l/m 4,5 km/h N 11,6 C 20,0 C 19,7 km/h
01.07.2017 00:00 19,4 C 59 % 1006,3 hPa 0,0 l/m 0,0 km/h N 11,1 C 19,4 C 2,4 km/h
01.07.2017 01:00 18,9 C 58 % 1005,7 hPa 0,0 l/m 0,2 km/h N 10,5 C 18,9 C 3,2 km/h
01.07.2017 02:00 18,6 C 62 % 1006,1 hPa 0,0 l/m 0,4 km/h N 11,1 C 18,6 C 4,8 km/h
01.07.2017 03:00 17,9 C 64 % 1006,0 hPa 0,0 l/m 0,2 km/h N 11,0 C 17,9 C 2,0 km/h
01.07.2017 04:00 17,4 C 67 % 1006,4 hPa 0,0 l/m 0,0 km/h N 11,1 C 17,4 C 0,0 km/h
01.07.2017 05:00 16,6 C 71 % 1006,3 hPa 0,0 l/m 0,0 km/h N 11,3 C 16,6 C 0,0 km/h
01.07.2017 06:00 17,1 C 67 % 1006,7 hPa 0,0 l/m 0,9 km/h N 10,9 C 17,1 C 7,2 km/h
01.07.2017 07:00 18,7 C 57 % 1007,5 hPa 0,0 l/m 8,3 km/h N 9,9 C 17,7 C 29,0 km/h
01.07.2017 08:00 15,6 C 76 % 1009,6 hPa 1,3 l/m 11,6 km/h N 11,4 C 13,3 C 28,1 km/h
01.07.2017 09:00 15,3 C 81 % 1010,0 hPa 0,8 l/m 2,7 km/h N 12,1 C 15,3 C 14,5 km/h
01.07.2017 10:00 18,6 C 73 % 1009,6 hPa 0,5 l/m 8,0 km/h N 13,7 C 18,0 C 23,7 km/h
01.07.2017 11:00 21,5 C 58 % 1009,5 hPa 0,5 l/m 9,5 km/h N 12,9 C 20,5 C 26,1 km/h
01.07.2017 12:00 22,9 C 54 % 1009,8 hPa 0,3 l/m 9,4 km/h N 13,0 C 22,0 C 26,5 km/h
01.07.2017 13:00 23,8 C 50 % 1009,8 hPa 0,0 l/m 9,1 km/h N 12,6 C 23,1 C 28,2 km/h
01.07.2017 14:00 24,8 C 46 % 1009,8 hPa 0,0 l/m 9,9 km/h N 12,2 C 23,9 C 28,2 km/h
01.07.2017 15:00 24,4 C 46 % 1009,8 hPa 0,0 l/m 9,0 km/h N 12,1 C 23,7 C 26,5 km/h
01.07.2017 16:00 24,8 C 44 % 1009,5 hPa 0,0 l/m 7,0 km/h N 11,5 C 24,5 C 24,9 km/h
01.07.2017 17:00 24,9 C 43 % 1009,3 hPa 0,0 l/m 8,4 km/h N 11,4 C 24,4 C 22,9 km/h
01.07.2017 18:00 25,3 C 40 % 1009,4 hPa 0,0 l/m 8,4 km/h N 10,6 C 24,8 C 24,5 km/h
01.07.2017 19:00 24,5 C 41 % 1009,6 hPa 0,0 l/m 8,2 km/h N 10,3 C 24,1 C 23,3 km/h
01.07.2017 20:00 24,1 C 43 % 1010,1 hPa 0,0 l/m 4,7 km/h N 10,5 C 23,9 C 16,1 km/h
01.07.2017 21:00 21,9 C 51 % 1011,2 hPa 0,0 l/m 1,5 km/h N 11,3 C 21,9 C 8,1 km/h
01.07.2017 22:00 20,4 C 54 % 1011,4 hPa 0,0 l/m 0,3 km/h N 10,6 C 20,4 C 4,0 km/h
01.07.2017 23:00 18,5 C 62 % 1011,4 hPa 0,0 l/m 0,1 km/h N 11,1 C 18,5 C 1,2 km/h
02.07.2017 00:00 16,5 C 70 % 1011,8 hPa 0,0 l/m 0,1 km/h N 10,8 C 16,5 C 1,6 km/h
02.07.2017 01:00 15,8 C 72 % 1012,0 hPa 0,0 l/m 0,0 km/h N 10,8 C 15,8 C 0,0 km/h
02.07.2017 02:00 14,8 C 76 % 1012,0 hPa 0,0 l/m 0,0 km/h N 10,6 C 14,8 C 2,0 km/h
02.07.2017 03:00 17,1 C 68 % 1011,7 hPa 0,0 l/m 2,2 km/h N 11,0 C 17,1 C 16,9 km/h
02.07.2017 04:00 18,7 C 60 % 1011,6 hPa 0,0 l/m 5,4 km/h N 10,8 C 18,7 C 20,9 km/h
02.07.2017 05:00 18,7 C 61 % 1011,5 hPa 0,0 l/m 7,6 km/h N 11,0 C 17,9 C 27,4 km/h
02.07.2017 06:00 18,5 C 63 % 1011,9 hPa 0,0 l/m 6,0 km/h N 11,2 C 18,1 C 23,7 km/h
02.07.2017 07:00 18,9 C 63 % 1012,3 hPa 0,0 l/m 6,8 km/h N 11,6 C 18,3 C 24,9 km/h
02.07.2017 08:00 19,0 C 63 % 1012,7 hPa 0,0 l/m 9,4 km/h N 11,7 C 17,7 C 28,2 km/h
02.07.2017 09:00 18,2 C 69 % 1013,5 hPa 0,0 l/m 10,7 km/h N 12,4 C 16,4 C 30,6 km/h
02.07.2017 10:00 17,6 C 74 % 1014,1 hPa 0,0 l/m 10,9 km/h N 12,8 C 15,7 C 28,2 km/h
02.07.2017 11:00 17,9 C 74 % 1014,6 hPa 0,0 l/m 9,3 km/h N 13,1 C 16,7 C 28,6 km/h
02.07.2017 12:00 18,3 C 73 % 1014,8 hPa 0,0 l/m 8,7 km/h N 13,3 C 17,3 C 22,9 km/h
02.07.2017 13:00 19,2 C 71 % 1014,7 hPa 0,0 l/m 10,2 km/h N 13,9 C 17,7 C 25,3 km/h
02.07.2017 14:00 20,6 C 66 % 1014,6 hPa 0,0 l/m 8,9 km/h N 14,0 C 19,7 C 24,5 km/h
02.07.2017 15:00 21,0 C 66 % 1014,4 hPa 0,0 l/m 6,2 km/h N 14,4 C 20,8 C 24,1 km/h
02.07.2017 16:00 21,1 C 66 % 1013,9 hPa 0,0 l/m 6,3 km/h N 14,4 C 21,0 C 24,1 km/h
02.07.2017 17:00 21,7 C 62 % 1013,4 hPa 0,0 l/m 8,4 km/h N 14,1 C 20,9 C 24,1 km/h
02.07.2017 18:00 21,0 C 64 % 1013,2 hPa 0,0 l/m 7,1 km/h N 13,9 C 20,6 C 20,9 km/h
02.07.2017 19:00 20,9 C 64 % 1013,4 hPa 0,0 l/m 5,4 km/h N 13,8 C 20,9 C 20,9 km/h
02.07.2017 20:00 20,8 C 65 % 1014,0 hPa 0,0 l/m 9,5 km/h N 13,9 C 19,7 C 23,3 km/h
02.07.2017 21:00 20,3 C 66 % 1014,9 hPa 0,0 l/m 8,6 km/h N 13,7 C 19,5 C 24,1 km/h
02.07.2017 22:00 20,0 C 68 % 1015,6 hPa 0,0 l/m 10,3 km/h N 13,8 C 18,6 C 25,4 km/h
02.07.2017 23:00 19,2 C 72 % 1016,0 hPa 0,0 l/m 8,3 km/h N 13,9 C 18,4 C 23,3 km/h
Min-Datum _ 02.07.17 28.06.17 29.06.17 - 26.06.17 - 01.07.17 01.07.17 26.06.17
_ Min-Zeit 02:45 12:15 04:30 - 19:45 - 07:15 08:15 19:45
Minimum _ 14,5 C 38 % 992,3 hPa - 0,0 km/h - 9,8 C 12,7 C 0,0 km/h
Max-Datum _ 28.06.17 01.07.17 02.07.17 01.07.17 30.06.17 - 27.06.17 28.06.17 29.06.17
_ Max-Zeit 13:30 09:15 23:00 08:15 10:45 - 11:45 13:30 11:00
Maximum _ 34,3 C 83 % 1016,0 hPa 1,3 l/m 14,9 km/h
N
- 19,0 C 34,3 C 41,8 km/h
N
Durchschnitt _ 22,5 C 60 % 1006,0 hPa #3,6 l/m 3,9 km/h N 14,1 C 22,3 C 14,3 km/h